Terminal Aerodrome Forecast
Issued by NWS Mobile, AL

Home | Current Version | Previous Version | Text Only | Print | Product List | Glossary On
Versions: 1 2 3 4 5 6 7 8 9 10 11 12 13 14 15
000
FTUS44 KMOB 261120
TAFMOB
TAF
KMOB 261120Z 2612/2712 00000KT P6SM FEW250
     FM261500 18010KT P6SM SKC
     FM270900 19002KT 5SM BR OVC015=

USA.gov is the U.S. government's official web portal to all federal, state and local government web resources and services.